createdAt,value
2022-08-19T04:06:48.267Z,6.18
2022-08-19T04:09:52.954Z,5.97
2022-08-19T04:12:55.523Z,6.32
2022-08-19T04:15:58.292Z,5.97
2022-08-19T04:19:02.684Z,6.30
2022-08-19T04:22:06.139Z,6.03
2022-08-19T04:25:09.186Z,5.68
2022-08-19T04:28:13.719Z,5.93
2022-08-19T04:31:18.951Z,5.68
2022-08-19T04:34:25.072Z,6.10
2022-08-19T04:37:34.900Z,5.40
2022-08-19T04:41:06.493Z,6.03
2022-08-19T04:44:09.472Z,5.90
2022-08-19T04:47:12.518Z,5.55
2022-08-19T04:50:15.843Z,5.90
2022-08-19T04:53:20.515Z,5.55
2022-08-19T04:56:23.698Z,5.78
2022-08-19T04:59:26.605Z,5.68
2022-08-19T05:02:30.409Z,6.28
2022-08-19T05:05:33.555Z,5.70
2022-08-19T05:08:48.412Z,6.32
2022-08-19T05:11:54.539Z,5.70
2022-08-19T05:14:59.014Z,5.85
2022-08-19T05:18:20.443Z,7.03
2022-08-19T05:21:42.780Z,6.32
2022-08-19T05:25:09.251Z,5.78
2022-08-19T05:28:08.283Z,5.43
2022-08-19T05:31:11.374Z,5.50
2022-08-19T05:34:20.162Z,6.32
2022-08-19T05:37:24.309Z,6.68
2022-08-19T05:40:26.917Z,6.57
2022-08-19T05:43:32.273Z,5.28
2022-08-19T05:46:38.953Z,5.53
2022-08-19T05:49:43.317Z,6.15
2022-08-19T05:52:50.093Z,5.37
2022-08-19T05:55:53.635Z,5.65
2022-08-19T05:59:00.121Z,6.70
2022-08-19T06:02:05.152Z,6.50
2022-08-19T06:05:10.115Z,6.03
2022-08-19T06:08:12.685Z,5.72
2022-08-19T06:11:19.398Z,7.75
2022-08-19T06:14:27.848Z,6.07
2022-08-19T06:17:31.887Z,6.00
2022-08-19T06:20:54.895Z,5.12
2022-08-19T06:23:59.310Z,5.30
2022-08-19T06:27:02.081Z,5.82
2022-08-19T06:30:05.883Z,5.15
2022-08-19T06:33:08.516Z,5.60
2022-08-19T06:36:34.836Z,4.90
2022-08-19T06:39:39.661Z,5.65
2022-08-19T06:42:43.280Z,5.10
2022-08-19T06:45:56.869Z,4.55
2022-08-19T06:49:02.149Z,5.15
2022-08-19T06:52:06.672Z,4.82
2022-08-19T06:55:09.720Z,5.30
2022-08-19T06:58:12.535Z,4.62
2022-08-19T07:01:16.309Z,5.10
2022-08-19T07:04:22.664Z,4.55
2022-08-19T07:07:26.175Z,4.60
2022-08-19T07:10:28.718Z,4.68
2022-08-19T07:13:37.888Z,4.53
2022-08-19T07:16:43.037Z,4.80
2022-08-19T07:19:46.096Z,5.07
2022-08-19T07:22:50.377Z,4.20
2022-08-19T07:25:53.471Z,4.10
2022-08-19T07:28:58.493Z,4.55
2022-08-19T07:32:03.172Z,4.90
2022-08-19T07:35:07.400Z,4.30
2022-08-19T07:38:10.636Z,5.40
2022-08-19T07:41:16.608Z,4.20
2022-08-19T07:44:21.772Z,3.85
2022-08-19T07:47:58.450Z,3.75
2022-08-19T07:50:49.397Z,4.28
2022-08-19T07:53:52.079Z,4.20
2022-08-19T07:56:55.582Z,3.87
2022-08-19T07:59:58.309Z,4.07
2022-08-19T08:03:01.292Z,3.70
2022-08-19T08:06:28.099Z,4.50
2022-08-19T08:09:35.548Z,3.92
2022-08-19T08:12:42.410Z,4.72
2022-08-19T08:15:45.995Z,3.92
2022-08-19T08:18:50.225Z,4.05
2022-08-19T08:21:56.161Z,3.62
2022-08-19T08:25:04.140Z,4.15
2022-08-19T08:28:11.409Z,3.58
2022-08-19T08:31:21.141Z,3.40
2022-08-19T08:34:23.732Z,3.97
2022-08-19T08:37:26.540Z,3.80
2022-08-19T08:40:38.882Z,3.92
2022-08-19T08:43:45.646Z,3.80
2022-08-19T08:46:57.027Z,3.60
2022-08-19T08:50:05.494Z,3.35
2022-08-19T08:53:11.374Z,4.00
2022-08-19T08:56:16.959Z,3.20
2022-08-19T08:59:33.394Z,3.30
2022-08-19T09:02:36.208Z,4.00
2022-08-19T09:06:00.343Z,3.45
2022-08-19T09:09:12.450Z,3.55
2022-08-19T09:12:27.037Z,3.50
2022-08-19T09:15:36.822Z,3.33
2022-08-19T09:18:49.834Z,3.45
2022-08-19T09:21:53.057Z,3.58
2022-08-19T09:24:56.376Z,3.45
2022-08-19T09:28:05.902Z,3.47
2022-08-19T09:31:27.255Z,3.37
2022-08-19T09:34:30.402Z,3.30
2022-08-19T09:37:41.197Z,3.50
2022-08-19T09:40:44.130Z,3.55
2022-08-19T09:43:50.186Z,3.60
2022-08-19T09:46:53.269Z,3.55
2022-08-19T09:49:56.011Z,3.30
2022-08-19T09:52:59.464Z,3.30
2022-08-19T09:56:04.042Z,3.40
2022-08-19T09:59:07.721Z,3.60
2022-08-19T10:02:11.936Z,3.50
2022-08-19T10:05:34.156Z,4.45
2022-08-19T10:08:37.944Z,3.30
2022-08-19T10:11:46.980Z,3.25
2022-08-19T10:14:55.539Z,3.22
2022-08-19T10:18:00.256Z,10.50
2022-08-19T10:21:14.567Z,3.03
2022-08-19T10:24:18.539Z,3.47
2022-08-19T10:27:21.649Z,3.45
2022-08-19T10:30:24.865Z,2.87
2022-08-19T10:33:42.571Z,3.20
2022-08-19T10:36:56.323Z,3.28
2022-08-19T10:40:06.514Z,3.00
2022-08-19T10:43:09.677Z,3.10
2022-08-19T10:46:18.677Z,3.10
2022-08-19T10:49:22.209Z,3.95
2022-08-19T10:52:34.681Z,2.80
2022-08-19T10:56:00.433Z,3.22
2022-08-19T10:59:04.251Z,3.97
2022-08-19T11:02:10.878Z,2.83
2022-08-19T11:05:15.838Z,3.25
2022-08-19T11:08:23.000Z,3.40
2022-08-19T11:14:32.223Z,2.85
2022-08-19T11:17:36.999Z,3.28
2022-08-19T11:20:40.572Z,3.12
2022-08-19T11:23:43.194Z,2.60
2022-08-19T11:26:46.421Z,3.30
2022-08-19T11:29:49.575Z,2.92
2022-08-19T11:32:52.462Z,3.30
2022-08-19T11:35:55.250Z,3.95
2022-08-19T11:38:58.079Z,3.53
2022-08-19T11:42:03.723Z,2.75
2022-08-19T11:45:07.080Z,3.60
2022-08-19T11:48:09.999Z,3.65
2022-08-19T11:51:16.810Z,3.37
2022-08-19T11:54:19.567Z,2.75
2022-08-19T11:57:22.669Z,2.72
2022-08-19T12:00:25.343Z,3.00
2022-08-19T12:03:28.909Z,3.17
2022-08-19T12:06:35.543Z,3.00
2022-08-19T12:09:42.166Z,3.10
2022-08-19T12:12:46.679Z,3.10
2022-08-19T12:15:59.205Z,4.10
2022-08-19T12:19:05.077Z,3.47
2022-08-19T12:22:08.622Z,3.80
2022-08-19T12:25:12.724Z,4.00
2022-08-19T12:28:16.034Z,3.65
2022-08-19T12:31:20.434Z,3.03
2022-08-19T12:34:23.310Z,4.62
2022-08-19T12:37:26.221Z,6.90
2022-08-19T12:40:29.382Z,4.22
2022-08-19T12:43:32.464Z,4.18
2022-08-19T12:46:35.469Z,4.53
2022-08-19T12:49:52.370Z,3.95
2022-08-19T12:52:59.079Z,4.47
2022-08-19T12:56:01.643Z,4.40
2022-08-19T12:59:05.771Z,4.90
2022-08-19T13:02:08.796Z,4.97
2022-08-19T13:05:17.001Z,5.72
2022-08-19T13:08:19.702Z,8.20
2022-08-19T13:11:25.385Z,5.57
2022-08-19T13:14:28.107Z,6.10
2022-08-19T13:17:31.000Z,6.10
2022-08-19T13:20:34.146Z,6.25
2022-08-19T13:23:37.145Z,5.47
2022-08-19T13:26:39.724Z,5.50
2022-08-19T13:30:01.798Z,5.72
2022-08-19T13:33:11.583Z,5.37
2022-08-19T13:36:14.361Z,5.93
2022-08-19T13:39:17.700Z,4.78
2022-08-19T13:42:20.531Z,5.05
2022-08-19T13:45:25.386Z,4.70
2022-08-19T13:48:28.665Z,3.77
2022-08-19T13:51:34.200Z,3.33
2022-08-19T13:54:37.091Z,2.90
2022-08-19T13:57:40.015Z,2.90
2022-08-19T14:00:45.618Z,3.00
2022-08-19T14:03:49.229Z,2.90
2022-08-19T14:06:51.786Z,3.22
2022-08-19T14:09:54.776Z,3.53
2022-08-19T14:12:59.541Z,3.05
2022-08-19T14:16:03.074Z,3.78
2022-08-19T14:19:05.803Z,2.75
2022-08-19T14:22:08.964Z,3.20
2022-08-19T14:25:17.306Z,2.70
2022-08-19T14:28:20.389Z,3.17
2022-08-19T14:31:30.828Z,3.03
2022-08-19T14:34:34.719Z,2.60
2022-08-19T14:37:45.392Z,2.78
2022-08-19T14:40:49.923Z,3.00
2022-08-19T14:43:54.056Z,2.75
2022-08-19T14:46:56.937Z,2.40
2022-08-19T14:50:00.432Z,3.47
2022-08-19T14:53:27.729Z,2.55
2022-08-19T14:56:31.728Z,2.92
2022-08-19T14:59:36.221Z,2.20
2022-08-19T15:02:39.555Z,1.92
2022-08-19T15:05:42.257Z,3.17
2022-08-19T15:08:45.894Z,2.42
2022-08-19T15:11:50.629Z,2.60
2022-08-19T15:14:55.976Z,2.20
2022-08-19T15:18:03.425Z,2.17
2022-08-19T15:21:06.404Z,2.20
2022-08-19T15:24:10.158Z,1.62
2022-08-19T15:27:13.884Z,2.25
2022-08-19T15:30:22.905Z,2.50
